createdAt,value
2023-04-01T00:00:16.134Z,0.00
2023-04-01T00:01:16.213Z,0.00
2023-04-01T00:02:16.148Z,0.00
2023-04-01T00:03:16.223Z,0.00
2023-04-01T00:04:16.119Z,0.00
2023-04-01T00:05:16.063Z,0.00
2023-04-01T00:06:16.070Z,0.00
2023-04-01T00:07:16.835Z,0.00
2023-04-01T00:08:16.044Z,0.00
2023-04-01T00:09:16.032Z,0.00
2023-04-01T00:10:16.027Z,0.00
2023-04-01T00:11:16.012Z,0.00
2023-04-01T00:12:16.803Z,0.00
2023-04-01T00:13:15.996Z,0.00
2023-04-01T00:14:15.986Z,0.00
2023-04-01T00:15:15.972Z,0.00
2023-04-01T00:16:20.973Z,0.00
2023-04-01T00:17:16.714Z,0.00
2023-04-01T00:18:15.951Z,0.00
2023-04-01T00:19:15.941Z,0.00
2023-04-01T00:20:15.952Z,0.00
2023-04-01T00:21:15.918Z,0.00
2023-04-01T00:22:16.264Z,0.00
2023-04-01T00:23:15.904Z,0.00
2023-04-01T00:24:15.896Z,0.00
2023-04-01T00:25:15.887Z,0.00
2023-04-01T00:26:15.882Z,0.00
2023-04-01T00:27:16.608Z,0.00
2023-04-01T00:28:15.869Z,0.00
2023-04-01T00:29:15.855Z,0.00
2023-04-01T00:30:15.867Z,0.00
2023-04-01T00:31:15.845Z,0.00
2023-04-01T00:32:16.172Z,0.00
2023-04-01T00:33:15.816Z,0.00
2023-04-01T00:34:15.812Z,0.00
2023-04-01T00:35:15.800Z,0.00
2023-04-01T00:36:15.884Z,0.00
2023-04-01T00:37:16.476Z,0.00
2023-04-01T00:38:15.773Z,0.00
2023-04-01T00:39:15.763Z,0.00
2023-04-01T00:40:15.767Z,0.00
2023-04-01T00:41:15.778Z,0.00
2023-04-01T00:42:16.139Z,0.00
2023-04-01T00:43:15.732Z,0.00
2023-04-01T00:44:15.716Z,0.00
2023-04-01T00:45:15.712Z,0.00
2023-04-01T00:46:15.788Z,0.00
2023-04-01T00:47:16.031Z,0.00
2023-04-01T00:48:15.686Z,0.00
2023-04-01T00:49:15.682Z,0.00
2023-04-01T00:50:15.675Z,0.00
2023-04-01T00:51:15.658Z,0.00
2023-04-01T00:52:16.316Z,0.00
2023-04-01T00:53:15.649Z,0.00
2023-04-01T00:54:15.641Z,0.00
2023-04-01T00:55:15.623Z,0.00
2023-04-01T00:56:15.608Z,0.00
2023-04-01T00:57:16.464Z,0.00
2023-04-01T00:58:15.590Z,0.00
2023-04-01T00:59:15.586Z,0.00
2023-04-01T01:00:15.574Z,0.00
2023-04-01T01:01:15.585Z,0.00
2023-04-01T01:02:16.490Z,0.00
2023-04-01T01:03:15.600Z,0.00
2023-04-01T01:04:15.533Z,0.00
2023-04-01T01:05:15.528Z,0.00
2023-04-01T01:06:15.521Z,0.00
2023-04-01T01:07:15.835Z,0.00
2023-04-01T01:08:15.494Z,0.00
2023-04-01T01:09:15.508Z,0.00
2023-04-01T01:10:15.478Z,0.00
2023-04-01T01:11:15.484Z,0.00
2023-04-01T01:12:15.794Z,0.00
2023-04-01T01:13:15.457Z,0.00
2023-04-01T01:14:15.438Z,0.00
2023-04-01T01:15:15.437Z,0.00
2023-04-01T01:16:15.454Z,0.00
2023-04-01T01:17:15.740Z,0.00
2023-04-01T01:18:15.404Z,0.00
2023-04-01T01:19:15.403Z,0.00
2023-04-01T01:20:25.426Z,0.00
2023-04-01T01:21:15.380Z,0.00
2023-04-01T01:22:15.691Z,0.00
2023-04-01T01:23:15.360Z,0.00
2023-04-01T01:24:15.350Z,0.00
2023-04-01T01:25:15.347Z,0.00
2023-04-01T01:26:15.329Z,0.00
2023-04-01T01:27:16.207Z,0.00
2023-04-01T01:28:15.308Z,0.00
2023-04-01T01:29:15.303Z,0.00
2023-04-01T01:30:15.290Z,0.00
2023-04-01T01:31:15.342Z,0.00
2023-04-01T01:32:15.330Z,0.00
2023-04-01T01:33:15.272Z,0.00
2023-04-01T01:34:15.253Z,0.00
2023-04-01T01:35:15.247Z,0.00
2023-04-01T01:36:15.261Z,0.00
2023-04-01T01:37:15.634Z,0.00
2023-04-01T01:38:15.309Z,0.00
2023-04-01T01:39:15.208Z,0.00
2023-04-01T01:40:15.224Z,0.00
2023-04-01T01:41:15.189Z,0.00
2023-04-01T01:42:15.518Z,0.00
2023-04-01T01:43:15.232Z,0.00
2023-04-01T01:44:15.180Z,0.00
2023-04-01T01:45:15.197Z,0.00
2023-04-01T01:46:15.212Z,0.00
2023-04-01T01:47:15.486Z,0.00
2023-04-01T01:48:15.175Z,0.00
2023-04-01T01:49:15.212Z,0.00
2023-04-01T01:50:15.120Z,0.00
2023-04-01T01:51:15.102Z,0.00
2023-04-01T01:52:15.969Z,0.00
2023-04-01T01:53:15.088Z,0.00
2023-04-01T01:54:15.074Z,0.00
2023-04-01T01:55:15.070Z,0.00
2023-04-01T01:56:15.099Z,0.00
2023-04-01T01:57:15.440Z,0.00
2023-04-01T01:58:15.033Z,0.00
2023-04-01T01:59:15.027Z,0.00
2023-04-01T02:00:15.014Z,0.00
2023-04-01T02:01:15.047Z,0.00
2023-04-01T02:02:15.815Z,0.00
2023-04-01T02:03:14.990Z,0.00
2023-04-01T02:04:14.988Z,0.00
2023-04-01T02:05:14.969Z,0.00
2023-04-01T02:06:14.974Z,0.00
2023-04-01T02:07:15.301Z,0.00
2023-04-01T02:08:14.943Z,0.00
2023-04-01T02:09:14.938Z,0.00
2023-04-01T02:10:14.930Z,0.00
2023-04-01T02:11:14.911Z,0.00
2023-04-01T02:12:15.368Z,0.00
2023-04-01T02:13:14.893Z,0.00
2023-04-01T02:14:14.879Z,0.00
2023-04-01T02:15:14.874Z,0.00
2023-04-01T02:16:14.935Z,0.00
2023-04-01T02:17:15.171Z,0.00
2023-04-01T02:18:14.836Z,0.00
2023-04-01T02:19:15.232Z,0.00
2023-04-01T02:20:14.826Z,0.00
2023-04-01T02:21:14.816Z,0.00
2023-04-01T02:22:15.560Z,0.00
2023-04-01T02:23:14.797Z,0.00
2023-04-01T02:24:14.780Z,0.00
2023-04-01T02:25:14.776Z,0.00
2023-04-01T02:26:14.771Z,0.00
2023-04-01T02:27:15.596Z,0.00
2023-04-01T02:28:14.748Z,0.00
2023-04-01T02:29:14.732Z,0.00
2023-04-01T02:30:14.743Z,0.00
2023-04-01T02:31:14.766Z,0.00
2023-04-01T02:32:15.047Z,0.00
2023-04-01T02:33:14.704Z,0.00
2023-04-01T02:34:14.687Z,0.00
2023-04-01T02:35:14.679Z,0.00
2023-04-01T02:36:14.709Z,0.00
2023-04-01T02:37:14.972Z,0.00
2023-04-01T02:38:14.654Z,0.00
2023-04-01T02:39:14.648Z,0.00
2023-04-01T02:40:14.637Z,0.00
2023-04-01T02:41:14.627Z,0.00
2023-04-01T02:42:14.614Z,0.00
2023-04-01T02:43:15.450Z,0.00
2023-04-01T02:44:14.620Z,0.00
2023-04-01T02:45:14.591Z,0.00
2023-04-01T02:46:14.600Z,0.00
2023-04-01T02:47:14.578Z,0.00
2023-04-01T02:48:14.933Z,0.00
2023-04-01T02:49:14.554Z,0.00
2023-04-01T02:50:14.543Z,0.00
2023-04-01T02:51:15.549Z,0.00
2023-04-01T02:52:14.520Z,0.00
2023-04-01T02:53:15.442Z,0.00
2023-04-01T02:54:14.504Z,0.00
2023-04-01T02:55:14.500Z,0.00
2023-04-01T02:56:14.496Z,0.00
2023-04-01T02:57:14.518Z,0.00
2023-04-01T02:58:14.809Z,0.00
2023-04-01T02:59:14.461Z,0.00
2023-04-01T03:00:14.459Z,0.00
2023-04-01T03:01:14.483Z,0.00
2023-04-01T03:02:14.463Z,0.00
2023-04-01T03:03:14.778Z,0.00
2023-04-01T03:04:14.414Z,0.00
2023-04-01T03:05:14.414Z,0.00
2023-04-01T03:06:14.401Z,0.00
2023-04-01T03:07:14.397Z,0.00
2023-04-01T03:08:14.696Z,0.00
2023-04-01T03:09:14.375Z,0.00
2023-04-01T03:10:14.361Z,0.00
2023-04-01T03:11:14.355Z,0.00
2023-04-01T03:12:14.347Z,0.00
2023-04-01T03:13:14.635Z,0.00
2023-04-01T03:14:14.333Z,0.00
2023-04-01T03:15:14.325Z,0.00
2023-04-01T03:16:14.341Z,0.00
2023-04-01T03:17:14.303Z,0.00
2023-04-01T03:18:14.420Z,0.00
2023-04-01T03:19:14.288Z,0.00
2023-04-01T03:20:14.275Z,0.00
2023-04-01T03:21:14.267Z,0.00
2023-04-01T03:22:14.252Z,0.00
2023-04-01T03:23:14.576Z,0.00
2023-04-01T03:24:14.233Z,0.00
2023-04-01T03:25:14.234Z,0.00
2023-04-01T03:26:14.218Z,0.00
2023-04-01T03:27:14.213Z,0.00
2023-04-01T03:28:14.967Z,0.00
2023-04-01T03:29:14.201Z,0.00
2023-04-01T03:30:14.291Z,0.00
2023-04-01T03:31:14.258Z,0.00
2023-04-01T03:32:14.156Z,0.00
2023-04-01T03:33:14.862Z,0.00
2023-04-01T03:34:14.139Z,0.00
2023-04-01T03:35:14.138Z,0.00
2023-04-01T03:36:14.144Z,0.00
2023-04-01T03:37:14.122Z,0.00
2023-04-01T03:38:14.605Z,0.00
2023-04-01T03:39:14.103Z,0.00
2023-04-01T03:40:14.095Z,0.00
2023-04-01T03:41:14.084Z,0.00
2023-04-01T03:42:14.075Z,0.00
2023-04-01T03:43:14.432Z,0.00
2023-04-01T03:44:14.053Z,0.00
2023-04-01T03:45:14.060Z,0.00
2023-04-01T03:46:14.075Z,0.00
2023-04-01T03:47:14.032Z,0.00
2023-04-01T03:48:14.374Z,0.00
2023-04-01T03:49:14.030Z,0.00
2023-04-01T03:50:14.006Z,0.00
2023-04-01T03:51:14.000Z,0.00
2023-04-01T03:52:13.984Z,0.00
2023-04-01T03:53:14.329Z,0.00
2023-04-01T03:54:13.969Z,0.00
2023-04-01T03:55:13.973Z,0.00
2023-04-01T03:56:13.954Z,0.00
2023-04-01T03:57:13.982Z,0.00
2023-04-01T03:58:14.288Z,0.00
2023-04-01T03:59:13.925Z,0.00
2023-04-01T04:00:13.910Z,0.00
2023-04-01T04:01:13.902Z,0.00
2023-04-01T04:02:13.902Z,0.00
2023-04-01T04:03:14.649Z,0.00
2023-04-01T04:04:13.935Z,0.00
2023-04-01T04:05:13.870Z,0.00
2023-04-01T04:06:13.853Z,0.00
2023-04-01T04:07:13.848Z,0.00
2023-04-01T04:08:14.020Z,0.00
2023-04-01T04:09:13.824Z,0.00
2023-04-01T04:10:13.826Z,0.00
2023-04-01T04:11:13.825Z,0.00
2023-04-01T04:12:13.799Z,0.00
2023-04-01T04:13:14.604Z,0.00
2023-04-01T04:14:13.781Z,0.00
2023-04-01T04:15:13.777Z,0.00
2023-04-01T04:16:13.797Z,0.00
2023-04-01T04:17:13.755Z,0.00
2023-04-01T04:18:14.089Z,0.00
2023-04-01T04:19:13.739Z,0.00
2023-04-01T04:20:13.759Z,0.00
2023-04-01T04:21:13.713Z,0.00
2023-04-01T04:22:13.707Z,0.00
2023-04-01T04:23:14.032Z,0.00
2023-04-01T04:24:13.687Z,0.00
2023-04-01T04:25:13.672Z,0.00
2023-04-01T04:26:13.668Z,0.00
2023-04-01T04:27:13.658Z,0.00
2023-04-01T04:28:14.112Z,0.00
2023-04-01T04:29:13.634Z,0.00
2023-04-01T04:30:13.636Z,0.00
2023-04-01T04:31:13.686Z,0.00
2023-04-01T04:32:13.614Z,0.00
2023-04-01T04:33:14.467Z,0.00
2023-04-01T04:34:13.594Z,0.00
2023-04-01T04:35:13.522Z,1.00
2023-04-01T04:36:13.602Z,0.00
2023-04-01T04:37:13.517Z,1.00
2023-04-01T04:38:13.812Z,1.00
2023-04-01T04:39:13.486Z,2.00
2023-04-01T04:40:13.501Z,2.00
2023-04-01T04:41:13.474Z,1.00
2023-04-01T04:42:13.463Z,1.00
2023-04-01T04:43:13.806Z,2.00
2023-04-01T04:44:13.444Z,1.00
2023-04-01T04:45:13.423Z,3.00
2023-04-01T04:46:13.548Z,4.00
2023-04-01T04:47:13.539Z,9.00
2023-04-01T04:48:13.723Z,7.00
2023-04-01T04:49:13.401Z,9.00
2023-04-01T04:50:13.386Z,6.00
2023-04-01T04:51:13.373Z,11.00
2023-04-01T04:52:13.370Z,12.00
2023-04-01T04:53:13.875Z,11.00
2023-04-01T04:54:13.349Z,11.00
2023-04-01T04:55:13.334Z,15.00
2023-04-01T04:56:13.335Z,9.00
2023-04-01T04:57:13.355Z,17.00
2023-04-01T04:58:13.321Z,29.00
2023-04-01T04:59:13.294Z,24.00
2023-04-01T05:00:13.293Z,13.00
2023-04-01T05:01:13.314Z,30.00
2023-04-01T05:02:13.338Z,27.00
2023-04-01T05:03:14.089Z,38.00
2023-04-01T05:04:13.251Z,27.00
2023-04-01T05:05:13.236Z,40.00
2023-04-01T05:06:13.242Z,53.00
2023-04-01T05:07:13.212Z,58.00
2023-04-01T05:08:13.559Z,47.00
2023-04-01T05:09:13.205Z,51.00
2023-04-01T05:10:13.193Z,59.00
2023-04-01T05:11:13.989Z,66.00
2023-04-01T05:12:13.174Z,91.00
2023-04-01T05:13:13.936Z,96.00
2023-04-01T05:14:13.184Z,89.00
2023-04-01T05:15:13.134Z,59.00
2023-04-01T05:16:13.169Z,73.00
2023-04-01T05:17:13.113Z,76.00
2023-04-01T05:18:13.434Z,106.00
2023-04-01T05:19:13.092Z,100.00
2023-04-01T05:20:13.101Z,112.00
2023-04-01T05:21:13.069Z,122.00
2023-04-01T05:22:13.071Z,94.00
2023-04-01T05:23:13.842Z,172.00
2023-04-01T05:24:13.051Z,164.00
2023-04-01T05:25:13.032Z,125.00
2023-04-01T05:26:13.026Z,176.00
2023-04-01T05:27:13.014Z,222.00
2023-04-01T05:28:13.682Z,220.00
2023-04-01T05:29:12.995Z,138.00
2023-04-01T05:30:12.996Z,255.00
2023-04-01T05:31:13.025Z,259.00
2023-04-01T05:32:12.970Z,208.00
2023-04-01T05:33:13.828Z,217.00
2023-04-01T05:34:12.946Z,168.00
2023-04-01T05:35:13.071Z,339.00
2023-04-01T05:36:12.977Z,221.00
2023-04-01T05:37:12.921Z,276.00
2023-04-01T05:38:13.284Z,368.00
2023-04-01T05:39:12.904Z,239.00
2023-04-01T05:40:12.890Z,299.00
2023-04-01T05:41:12.883Z,305.00
2023-04-01T05:42:12.880Z,344.00
2023-04-01T05:43:13.684Z,439.00
2023-04-01T05:44:12.851Z,546.00
2023-04-01T05:45:12.833Z,525.00
2023-04-01T05:46:12.864Z,612.00
2023-04-01T05:47:12.815Z,598.00
2023-04-01T05:48:12.812Z,585.00
2023-04-01T05:49:13.300Z,698.00
2023-04-01T05:50:12.804Z,688.00
2023-04-01T05:51:12.775Z,587.00
2023-04-01T05:52:12.775Z,615.00
2023-04-01T05:53:12.756Z,448.00
2023-04-01T05:54:13.501Z,651.00
2023-04-01T05:55:12.736Z,847.00
2023-04-01T05:56:12.735Z,783.00
2023-04-01T05:57:12.746Z,1076.00
2023-04-01T05:58:12.716Z,995.00
2023-04-01T05:59:13.041Z,803.00
2023-04-01T06:00:12.709Z,957.00
2023-04-01T06:01:15.928Z,1000.00
2023-04-01T06:02:12.684Z,574.00
2023-04-01T06:03:12.703Z,918.00
2023-04-01T06:04:13.495Z,607.00
2023-04-01T06:05:12.634Z,790.00
2023-04-01T06:06:12.638Z,873.00
2023-04-01T06:07:12.617Z,862.00
2023-04-01T06:08:12.626Z,910.00
2023-04-01T06:09:13.112Z,721.00
2023-04-01T06:10:12.595Z,594.00
2023-04-01T06:11:12.580Z,495.00
2023-04-01T06:12:12.602Z,595.00
2023-04-01T06:13:12.562Z,688.00
2023-04-01T06:14:13.343Z,726.00
2023-04-01T06:15:12.544Z,644.00
2023-04-01T06:16:12.591Z,631.00
2023-04-01T06:17:12.533Z,647.00
2023-04-01T06:18:12.542Z,595.00
2023-04-01T06:19:12.863Z,711.00
2023-04-01T06:20:12.496Z,760.00
2023-04-01T06:21:12.485Z,609.00
2023-04-01T06:22:12.477Z,702.00
2023-04-01T06:23:12.466Z,782.00
2023-04-01T06:24:13.173Z,817.00
2023-04-01T06:25:12.447Z,736.00
2023-04-01T06:26:12.442Z,724.00
2023-04-01T06:27:12.423Z,730.00
2023-04-01T06:28:12.431Z,767.00
2023-04-01T06:29:13.120Z,659.00
2023-04-01T06:30:12.412Z,709.00
2023-04-01T06:31:12.451Z,844.00
2023-04-01T06:32:12.445Z,727.00
2023-04-01T06:33:12.388Z,941.00
2023-04-01T06:34:12.617Z,923.00
2023-04-01T06:35:12.349Z,957.00
2023-04-01T06:36:12.411Z,1014.00
2023-04-01T06:37:12.343Z,1002.00
2023-04-01T06:38:12.346Z,981.00
2023-04-01T06:39:12.497Z,970.00
2023-04-01T06:40:12.314Z,1055.00
2023-04-01T06:41:12.308Z,908.00
2023-04-01T06:42:12.294Z,881.00
2023-04-01T06:43:12.278Z,1261.00
2023-04-01T06:44:12.288Z,1358.00
2023-04-01T06:45:12.257Z,1166.00
2023-04-01T06:46:12.306Z,1507.00
2023-04-01T06:47:12.246Z,1439.00
2023-04-01T06:48:12.338Z,1612.00
2023-04-01T06:49:12.234Z,1417.00
2023-04-01T06:50:12.221Z,1520.00
2023-04-01T06:51:12.220Z,1638.00
2023-04-01T06:52:12.195Z,1590.00
2023-04-01T06:53:12.188Z,1230.00
2023-04-01T06:54:12.679Z,1507.00
2023-04-01T06:55:12.168Z,1563.00
2023-04-01T06:56:12.178Z,1497.00
2023-04-01T06:57:12.161Z,1280.00
2023-04-01T06:58:12.143Z,1008.00
2023-04-01T06:59:12.303Z,1062.00
2023-04-01T07:00:12.143Z,1154.00
2023-04-01T07:01:12.240Z,1182.00
2023-04-01T07:02:12.109Z,1112.00
2023-04-01T07:03:12.132Z,1045.00
2023-04-01T07:04:12.439Z,1298.00
2023-04-01T07:05:12.080Z,1116.00
2023-04-01T07:06:12.063Z,1320.00
2023-04-01T07:07:12.050Z,1610.00
2023-04-01T07:08:12.042Z,1280.00
2023-04-01T07:09:12.349Z,1472.00
2023-04-01T07:10:12.027Z,1458.00
2023-04-01T07:11:12.016Z,1220.00
2023-04-01T07:12:12.008Z,1188.00
2023-04-01T07:13:11.993Z,1278.00
2023-04-01T07:14:12.296Z,1293.00
2023-04-01T07:15:11.972Z,1136.00
2023-04-01T07:16:11.985Z,1028.00
2023-04-01T07:17:12.092Z,1682.00
2023-04-01T07:18:12.012Z,1464.00
2023-04-01T07:19:12.308Z,1595.00
2023-04-01T07:20:11.941Z,1184.00
2023-04-01T07:21:12.287Z,1522.00
2023-04-01T07:22:11.919Z,1979.00
2023-04-01T07:23:11.905Z,1341.00
2023-04-01T07:24:12.447Z,1313.00
2023-04-01T07:25:11.894Z,1286.00
2023-04-01T07:26:11.878Z,1564.00
2023-04-01T07:27:11.892Z,1677.00
2023-04-01T07:28:11.867Z,2053.00
2023-04-01T07:29:12.174Z,1660.00
2023-04-01T07:30:11.850Z,1607.00
2023-04-01T07:31:11.847Z,1193.00
2023-04-01T07:32:11.828Z,1554.00
2023-04-01T07:33:11.810Z,2243.00
2023-04-01T07:34:12.489Z,2019.00
2023-04-01T07:35:11.789Z,1814.00
2023-04-01T07:36:11.816Z,1750.00
2023-04-01T07:37:11.782Z,1773.00
2023-04-01T07:38:11.829Z,2132.00
2023-04-01T07:39:12.084Z,1879.00
2023-04-01T07:40:11.761Z,1570.00
2023-04-01T07:41:11.749Z,1476.00
2023-04-01T07:42:11.756Z,1383.00
2023-04-01T07:43:11.725Z,1479.00
2023-04-01T07:44:12.342Z,1826.00
2023-04-01T07:45:11.701Z,1586.00
2023-04-01T07:46:11.781Z,1506.00
2023-04-01T07:47:11.681Z,1615.00
2023-04-01T07:48:11.726Z,1841.00
2023-04-01T07:49:12.205Z,2219.00
2023-04-01T07:50:11.658Z,2402.00
2023-04-01T07:51:11.651Z,2244.00
2023-04-01T07:52:11.641Z,1419.00
2023-04-01T07:53:11.637Z,2047.00
2023-04-01T07:54:12.002Z,1833.00
2023-04-01T07:55:11.608Z,1590.00
2023-04-01T07:56:12.701Z,1559.00
2023-04-01T07:57:11.645Z,1861.00
2023-04-01T07:58:11.597Z,2167.00
2023-04-01T07:59:12.109Z,2367.00
2023-04-01T08:00:11.581Z,2094.00
2023-04-01T08:01:11.559Z,2408.00
2023-04-01T08:02:11.560Z,2234.00
2023-04-01T08:03:11.671Z,1906.00
2023-04-01T08:04:12.666Z,1867.00
2023-04-01T08:05:11.536Z,2019.00
2023-04-01T08:06:11.534Z,2454.00
2023-04-01T08:07:11.510Z,1882.00
2023-04-01T08:08:11.511Z,2317.00
2023-04-01T08:09:11.915Z,2679.00
2023-04-01T08:10:11.485Z,2532.00
2023-04-01T08:11:11.471Z,2118.00
2023-04-01T08:12:11.468Z,2418.00
2023-04-01T08:13:11.454Z,2386.00
2023-04-01T08:14:11.780Z,2404.00
2023-04-01T08:15:11.435Z,2861.00
2023-04-01T08:16:11.497Z,2695.00
2023-04-01T08:17:11.419Z,2848.00
2023-04-01T08:18:11.412Z,3046.00
2023-04-01T08:19:11.712Z,2611.00
2023-04-01T08:20:11.404Z,2597.00
2023-04-01T08:21:11.383Z,3196.00
2023-04-01T08:22:11.379Z,3286.00
2023-04-01T08:23:11.368Z,3114.00
2023-04-01T08:24:11.711Z,3427.00
2023-04-01T08:25:11.345Z,2951.00
2023-04-01T08:26:11.353Z,2665.00
2023-04-01T08:27:11.325Z,4020.00
2023-04-01T08:28:11.318Z,3804.00
2023-04-01T08:29:11.664Z,2998.00
2023-04-01T08:30:11.301Z,2958.00
2023-04-01T08:31:11.296Z,3831.00
2023-04-01T08:32:11.324Z,3586.00
2023-04-01T08:33:11.308Z,3043.00
2023-04-01T08:34:11.283Z,2932.00
2023-04-01T08:35:11.260Z,2835.00
2023-04-01T08:36:11.304Z,2904.00
2023-04-01T08:37:11.244Z,2692.00
2023-04-01T08:38:11.234Z,2615.00
2023-04-01T08:39:11.540Z,2560.00
2023-04-01T08:40:11.220Z,2787.00
2023-04-01T08:41:11.214Z,3050.00
2023-04-01T08:42:11.194Z,3408.00
2023-04-01T08:43:11.201Z,3015.00
2023-04-01T08:44:11.193Z,3170.00
2023-04-01T08:45:13.132Z,2495.00
2023-04-01T08:46:11.192Z,1973.00
2023-04-01T08:47:11.163Z,2148.00
2023-04-01T08:48:11.158Z,2885.00
2023-04-01T08:49:11.167Z,3566.00
2023-04-01T08:50:11.131Z,3036.00
2023-04-01T08:51:11.122Z,2890.00
2023-04-01T08:52:11.128Z,2930.00
2023-04-01T08:53:11.109Z,2213.00
2023-04-01T08:54:11.093Z,2034.00
2023-04-01T08:55:11.444Z,3060.00
2023-04-01T08:56:11.084Z,3239.00
2023-04-01T08:57:11.121Z,3217.00
2023-04-01T08:58:11.062Z,3037.00
2023-04-01T08:59:11.067Z,2801.00
2023-04-01T09:00:11.356Z,2785.00
2023-04-01T09:01:11.039Z,2479.00
2023-04-01T09:02:11.112Z,2383.00
2023-04-01T09:03:11.269Z,3633.00
2023-04-01T09:04:11.049Z,3478.00
2023-04-01T09:05:11.392Z,3721.00
2023-04-01T09:06:10.997Z,2785.00
2023-04-01T09:07:12.766Z,3315.00
2023-04-01T09:08:10.981Z,3397.00
2023-04-01T09:09:10.978Z,2276.00
2023-04-01T09:10:10.975Z,2876.00
2023-04-01T09:11:10.952Z,3893.00
2023-04-01T09:12:10.954Z,3622.00
2023-04-01T09:13:10.935Z,3537.00
2023-04-01T09:14:10.924Z,3200.00
2023-04-01T09:15:10.932Z,3080.00
2023-04-01T09:16:11.357Z,2693.00
2023-04-01T09:17:10.899Z,2628.00
2023-04-01T09:18:10.937Z,2697.00
2023-04-01T09:19:11.099Z,3022.00
2023-04-01T09:20:10.871Z,3123.00
2023-04-01T09:21:11.221Z,3194.00
2023-04-01T09:22:10.860Z,2908.00
2023-04-01T09:23:10.853Z,3061.00
2023-04-01T09:24:10.842Z,3528.00
2023-04-01T09:25:10.837Z,3239.00
2023-04-01T09:26:11.164Z,3125.00
2023-04-01T09:27:10.820Z,2950.00
2023-04-01T09:28:10.810Z,3233.00
2023-04-01T09:29:10.950Z,3329.00
2023-04-01T09:30:10.951Z,2509.00
2023-04-01T09:31:10.797Z,3037.00
2023-04-01T09:32:10.783Z,2916.00
2023-04-01T09:33:10.785Z,2656.00
2023-04-01T09:34:10.755Z,2260.00
2023-04-01T09:35:10.763Z,2436.00
2023-04-01T09:36:10.776Z,2364.00
2023-04-01T09:37:10.735Z,1381.00
2023-04-01T09:38:10.739Z,1682.00
2023-04-01T09:39:10.719Z,2449.00
2023-04-01T09:40:10.716Z,2153.00
2023-04-01T09:41:10.702Z,1996.00
2023-04-01T09:42:10.687Z,1708.00
2023-04-01T09:43:10.684Z,1919.00
2023-04-01T09:44:10.685Z,2301.00
2023-04-01T09:45:10.693Z,2597.00
2023-04-01T09:46:10.684Z,1892.00
2023-04-01T09:47:10.677Z,2417.00
2023-04-01T09:48:10.700Z,2103.00
2023-04-01T09:49:10.633Z,1843.00
2023-04-01T09:50:10.972Z,2274.00
2023-04-01T09:51:10.624Z,2261.00
2023-04-01T09:52:10.602Z,2125.00
2023-04-01T09:53:10.600Z,2541.00
2023-04-01T09:54:10.611Z,2744.00
2023-04-01T09:55:10.617Z,2452.00
2023-04-01T09:56:10.586Z,2661.00
2023-04-01T09:57:10.621Z,2815.00
2023-04-01T09:58:10.549Z,2815.00
2023-04-01T09:59:10.541Z,2666.00
2023-04-01T10:00:10.548Z,2565.00
2023-04-01T10:01:10.523Z,2927.00
2023-04-01T10:02:10.528Z,3396.00
2023-04-01T10:03:10.543Z,2693.00
2023-04-01T10:04:10.491Z,3010.00
2023-04-01T10:05:10.536Z,3500.00
2023-04-01T10:06:10.657Z,3181.00
2023-04-01T10:07:10.471Z,2873.00
2023-04-01T10:08:10.464Z,2558.00
2023-04-01T10:09:10.458Z,2939.00
2023-04-01T10:10:10.461Z,3508.00
2023-04-01T10:11:10.434Z,3373.00
2023-04-01T10:12:10.423Z,2765.00
2023-04-01T10:13:10.415Z,3743.00
2023-04-01T10:14:10.409Z,3835.00
2023-04-01T10:15:10.411Z,3439.00
2023-04-01T10:16:10.420Z,3906.00
2023-04-01T10:17:10.385Z,4099.00
2023-04-01T10:18:10.372Z,4136.00
2023-04-01T10:19:10.365Z,3786.00
2023-04-01T10:20:10.534Z,3569.00
2023-04-01T10:21:10.351Z,4095.00
2023-04-01T10:22:10.332Z,4487.00
2023-04-01T10:23:10.328Z,4925.00
2023-04-01T10:24:10.316Z,5425.00
2023-04-01T10:25:10.777Z,6233.00
2023-04-01T10:26:10.296Z,6864.00
2023-04-01T10:27:10.297Z,6645.00
2023-04-01T10:28:10.293Z,7070.00
2023-04-01T10:29:10.271Z,6084.00
2023-04-01T10:30:10.620Z,5492.00
2023-04-01T10:31:10.260Z,5076.00
2023-04-01T10:32:10.336Z,4735.00
2023-04-01T10:33:10.273Z,5110.00
2023-04-01T10:34:10.224Z,5642.00
2023-04-01T10:35:10.575Z,6123.00
2023-04-01T10:36:10.204Z,5259.00
2023-04-01T10:37:10.193Z,4158.00
2023-04-01T10:38:10.173Z,4093.00
2023-04-01T10:39:10.167Z,3684.00
2023-04-01T10:40:10.527Z,3931.00
2023-04-01T10:41:10.150Z,4828.00
2023-04-01T10:42:10.138Z,3921.00
2023-04-01T10:43:10.128Z,4722.00
2023-04-01T10:44:10.108Z,4310.00
2023-04-01T10:45:10.152Z,3907.00
2023-04-01T10:46:10.107Z,3937.00
2023-04-01T10:47:10.142Z,4018.00
2023-04-01T10:48:10.069Z,4085.00
2023-04-01T10:49:10.059Z,3589.00
2023-04-01T10:50:10.460Z,3199.00
2023-04-01T10:51:10.041Z,2953.00
2023-04-01T10:52:10.026Z,2723.00
2023-04-01T10:53:10.022Z,3520.00
2023-04-01T10:54:10.008Z,3936.00
2023-04-01T10:55:10.050Z,3335.00
2023-04-01T10:56:09.987Z,2871.00
2023-04-01T10:57:10.019Z,3546.00
2023-04-01T10:58:10.005Z,3302.00
2023-04-01T10:59:09.959Z,3263.00
2023-04-01T11:00:10.268Z,2919.00
2023-04-01T11:01:09.987Z,3526.00
2023-04-01T11:02:12.079Z,3837.00
2023-04-01T11:03:09.990Z,3117.00
2023-04-01T11:04:09.902Z,3191.00
2023-04-01T11:05:10.348Z,4036.00
2023-04-01T11:06:09.877Z,4483.00
2023-04-01T11:07:09.874Z,3926.00
2023-04-01T11:08:09.862Z,3272.00
2023-04-01T11:09:09.856Z,3751.00
2023-04-01T11:10:09.861Z,4041.00
2023-04-01T11:11:09.832Z,5206.00
2023-04-01T11:12:09.815Z,5318.00
2023-04-01T11:13:09.807Z,6016.00
2023-04-01T11:14:09.795Z,5769.00
2023-04-01T11:15:10.160Z,5197.00
2023-04-01T11:16:09.811Z,5291.00
2023-04-01T11:17:09.767Z,5587.00
2023-04-01T11:18:09.864Z,5746.00
2023-04-01T11:19:09.743Z,5510.00
2023-04-01T11:20:09.752Z,5944.00
2023-04-01T11:21:09.725Z,6348.00
2023-04-01T11:22:09.707Z,6812.00
2023-04-01T11:23:09.701Z,6739.00
2023-04-01T11:24:09.709Z,6609.00
2023-04-01T11:25:09.718Z,5601.00
2023-04-01T11:26:09.700Z,4748.00
2023-04-01T11:27:09.736Z,3403.00
2023-04-01T11:28:09.642Z,3587.00
2023-04-01T11:29:09.668Z,3174.00
2023-04-01T11:30:09.641Z,2457.00
2023-04-01T11:31:09.640Z,2102.00
2023-04-01T11:32:09.604Z,2380.00
2023-04-01T11:33:09.626Z,3325.00
2023-04-01T11:34:09.586Z,4077.00
2023-04-01T11:35:09.606Z,4838.00
2023-04-01T11:36:09.555Z,5114.00
2023-04-01T11:37:09.560Z,4397.00
2023-04-01T11:38:09.586Z,3658.00
2023-04-01T11:39:09.537Z,3866.00
2023-04-01T11:40:09.558Z,4113.00
2023-04-01T11:41:09.508Z,3876.00
2023-04-01T11:42:09.494Z,3720.00
2023-04-01T11:43:09.656Z,3472.00
2023-04-01T11:44:09.471Z,3519.00
2023-04-01T11:45:09.532Z,2487.00
2023-04-01T11:46:09.516Z,2000.00
2023-04-01T11:47:09.449Z,2295.00
2023-04-01T11:48:09.531Z,2007.00
2023-04-01T11:49:09.424Z,3243.00
2023-04-01T11:50:09.419Z,3338.00
2023-04-01T11:51:09.402Z,3196.00
2023-04-01T11:52:09.392Z,2769.00
2023-04-01T11:53:09.376Z,2441.00
2023-04-01T11:54:09.366Z,2112.00
2023-04-01T11:55:09.377Z,1557.00
2023-04-01T11:56:09.355Z,1133.00
2023-04-01T11:57:09.367Z,1611.00
2023-04-01T11:58:09.320Z,1679.00
2023-04-01T11:59:09.314Z,1406.00
2023-04-01T12:00:09.322Z,1817.00
2023-04-01T12:01:09.293Z,2018.00
2023-04-01T12:02:09.318Z,1570.00
2023-04-01T12:03:09.365Z,1646.00
2023-04-01T12:04:09.449Z,2095.00
2023-04-01T12:05:09.262Z,1963.00
2023-04-01T12:06:09.234Z,2215.00
2023-04-01T12:07:09.225Z,2331.00
2023-04-01T12:08:09.214Z,2685.00
2023-04-01T12:09:09.228Z,2994.00
2023-04-01T12:10:09.499Z,3116.00
2023-04-01T12:11:09.207Z,3219.00
2023-04-01T12:12:09.181Z,3349.00
2023-04-01T12:13:09.177Z,3444.00
2023-04-01T12:14:09.156Z,3584.00
2023-04-01T12:15:09.165Z,3840.00
2023-04-01T12:16:09.183Z,4007.00
2023-04-01T12:17:09.123Z,4262.00
2023-04-01T12:18:09.147Z,4402.00
2023-04-01T12:19:09.104Z,4086.00
2023-04-01T12:20:09.449Z,3994.00
2023-04-01T12:21:09.092Z,4424.00
2023-04-01T12:22:09.074Z,4827.00
2023-04-01T12:23:09.066Z,4830.00
2023-04-01T12:24:09.094Z,4048.00
2023-04-01T12:25:09.133Z,3180.00
2023-04-01T12:26:09.029Z,3031.00
2023-04-01T12:27:09.018Z,3003.00
2023-04-01T12:28:09.001Z,2675.00
2023-04-01T12:29:09.005Z,2388.00
2023-04-01T12:30:09.505Z,2561.00
2023-04-01T12:31:08.975Z,2293.00
2023-04-01T12:32:09.011Z,1704.00
2023-04-01T12:33:08.989Z,1609.00
2023-04-01T12:34:08.934Z,1924.00
2023-04-01T12:35:08.959Z,1838.00
2023-04-01T12:36:08.968Z,1697.00